SNLS weather

São Sebastião Heliport
Lagoa Santa, Minas Gerais, Brazil

Public forecast

Using degrees Celsius for public forecast. Weather courtesy of forecast.io.

METAR (pilot weather report)

Closest report is Lagoa Santa Airport, 3.8 nm (7.0 km) NW. Retrieved 2019/09/23 18:00 UTC (48 minutes ago):

SBLS 231800Z 12011KT 080V140 9999 VCSH BKN035 22/13 Q1023

TAF (pilot weather forecast)

Closest forecast is Tancredo Neves International Airport, 8.5 nm (15.8 km) NW. Retrieved 2019/09/23 18:00 UTC (48 minutes ago):

TAF SBCF 231600Z 2318/2418 08015KT 9999 SCT035 TX32/2318Z TN19/2407Z BECMG 2321/2323 12010KT SCT040 BECMG 2403/2405 CAVOK BECMG 2408/2410 9999 SCT025 RMK PEN